sensor_id;sensor_type;location;lat;lon;timestamp;pressure;altitude;pressure_sealevel;temperature;humidity
57900;BME280;60605;53.716;19.940;2022-09-09T00:10:22;100185.13;;;15.26;58.98
57900;BME280;60605;53.716;19.940;2022-09-09T00:21:06;100174.42;;;15.16;59.12
57900;BME280;60605;53.716;19.940;2022-09-09T00:31:18;100161.05;;;15.11;59.22
57900;BME280;60605;53.716;19.940;2022-09-09T00:36:24;100159.02;;;15.08;59.32
57900;BME280;60605;53.716;19.940;2022-09-09T00:53:11;100148.70;;;15.02;59.12
57900;BME280;60605;53.716;19.940;2022-09-09T00:58:17;100151.54;;;15.00;59.02
57900;BME280;60605;53.716;19.940;2022-09-09T01:03:31;100146.95;;;14.97;59.20
57900;BME280;60605;53.716;19.940;2022-09-09T01:14:10;100150.72;;;14.86;59.66
57900;BME280;60605;53.716;19.940;2022-09-09T01:19:24;100151.62;;;14.82;59.56
57900;BME280;60605;53.716;19.940;2022-09-09T01:24:43;100157.97;;;14.80;59.49
57900;BME280;60605;53.716;19.940;2022-09-09T01:29:49;100155.97;;;14.77;59.66
57900;BME280;60605;53.716;19.940;2022-09-09T01:34:51;100153.16;;;14.72;59.57
57900;BME280;60605;53.716;19.940;2022-09-09T01:39:53;100158.87;;;14.70;59.63
57900;BME280;60605;53.716;19.940;2022-09-09T01:44:55;100155.65;;;14.67;59.64
57900;BME280;60605;53.716;19.940;2022-09-09T01:49:58;100160.75;;;14.63;59.78
57900;BME280;60605;53.716;19.940;2022-09-09T01:55:00;100159.83;;;14.59;59.79
57900;BME280;60605;53.716;19.940;2022-09-09T02:00:09;100162.86;;;14.54;59.97
57900;BME280;60605;53.716;19.940;2022-09-09T02:05:40;100168.19;;;14.50;60.01
57900;BME280;60605;53.716;19.940;2022-09-09T02:20:57;100171.42;;;14.41;60.07
57900;BME280;60605;53.716;19.940;2022-09-09T02:26:01;100176.39;;;14.39;60.20
57900;BME280;60605;53.716;19.940;2022-09-09T02:31:05;100180.99;;;14.36;60.10
57900;BME280;60605;53.716;19.940;2022-09-09T02:36:09;100184.45;;;14.35;60.25
57900;BME280;60605;53.716;19.940;2022-09-09T02:41:13;100187.37;;;14.31;61.09
57900;BME280;60605;53.716;19.940;2022-09-09T02:46:36;100182.20;;;14.17;62.44
57900;BME280;60605;53.716;19.940;2022-09-09T02:57:00;100191.27;;;13.71;65.72
57900;BME280;60605;53.716;19.940;2022-09-09T03:02:03;100189.33;;;13.49;67.37
57900;BME280;60605;53.716;19.940;2022-09-09T03:07:06;100186.81;;;13.30;68.54
57900;BME280;60605;53.716;19.940;2022-09-09T03:12:08;100197.00;;;13.15;69.97
57900;BME280;60605;53.716;19.940;2022-09-09T03:17:11;100204.06;;;13.02;70.92
57900;BME280;60605;53.716;19.940;2022-09-09T03:22:13;100204.13;;;12.85;72.78
57900;BME280;60605;53.716;19.940;2022-09-09T03:27:15;100198.95;;;12.67;74.01
57900;BME280;60605;53.716;19.940;2022-09-09T03:32:18;100196.52;;;12.50;76.39
57900;BME280;60605;53.716;19.940;2022-09-09T03:37:20;100192.40;;;12.35;77.90
57900;BME280;60605;53.716;19.940;2022-09-09T03:42:22;100186.98;;;12.23;79.58
57900;BME280;60605;53.716;19.940;2022-09-09T03:47:24;100193.46;;;12.14;80.26
57900;BME280;60605;53.716;19.940;2022-09-09T03:52:26;100201.91;;;12.09;80.99
57900;BME280;60605;53.716;19.940;2022-09-09T03:57:28;100203.33;;;12.04;83.20
57900;BME280;60605;53.716;19.940;2022-09-09T04:02:31;100202.27;;;11.98;85.94
57900;BME280;60605;53.716;19.940;2022-09-09T04:07:33;100205.59;;;11.88;86.46
57900;BME280;60605;53.716;19.940;2022-09-09T04:12:35;100212.02;;;11.74;88.00
57900;BME280;60605;53.716;19.940;2022-09-09T04:17:37;100205.17;;;11.57;89.68
57900;BME280;60605;53.716;19.940;2022-09-09T04:22:39;100202.44;;;11.44;89.98
57900;BME280;60605;53.716;19.940;2022-09-09T04:27:41;100203.90;;;11.32;91.08
57900;BME280;60605;53.716;19.940;2022-09-09T04:32:44;100205.52;;;11.23;91.17
57900;BME280;60605;53.716;19.940;2022-09-09T04:37:46;100201.98;;;11.18;91.64
57900;BME280;60605;53.716;19.940;2022-09-09T04:42:47;100200.23;;;11.14;92.51
57900;BME280;60605;53.716;19.940;2022-09-09T04:47:50;100194.74;;;11.10;94.23
57900;BME280;60605;53.716;19.940;2022-09-09T04:52:52;100196.36;;;11.07;96.00
57900;BME280;60605;53.716;19.940;2022-09-09T04:57:54;100194.48;;;11.01;96.39
57900;BME280;60605;53.716;19.940;2022-09-09T05:02:56;100203.98;;;10.94;97.76
57900;BME280;60605;53.716;19.940;2022-09-09T05:08:02;100211.02;;;10.86;97.81
57900;BME280;60605;53.716;19.940;2022-09-09T05:13:05;100210.88;;;10.77;98.92
57900;BME280;60605;53.716;19.940;2022-09-09T05:18:07;100214.67;;;10.66;99.96
57900;BME280;60605;53.716;19.940;2022-09-09T05:23:10;100220.04;;;10.57;100.00
57900;BME280;60605;53.716;19.940;2022-09-09T05:28:13;100222.77;;;10.49;100.00
57900;BME280;60605;53.716;19.940;2022-09-09T05:33:15;100226.01;;;10.46;100.00
57900;BME280;60605;53.716;19.940;2022-09-09T05:38:17;100219.98;;;10.42;100.00
57900;BME280;60605;53.716;19.940;2022-09-09T05:43:20;100226.80;;;10.40;100.00
57900;BME280;60605;53.716;19.940;2022-09-09T05:48:21;100228.10;;;10.37;100.00
57900;BME280;60605;53.716;19.940;2022-09-09T05:53:23;100229.30;;;10.38;100.00
57900;BME280;60605;53.716;19.940;2022-09-09T05:58:26;100232.92;;;10.39;100.00
57900;BME280;60605;53.716;19.940;2022-09-09T06:03:28;100237.27;;;10.40;100.00
57900;BME280;60605;53.716;19.940;2022-09-09T06:08:31;100236.35;;;10.42;100.00
57900;BME280;60605;53.716;19.940;2022-09-09T06:13:33;100234.69;;;10.43;100.00
57900;BME280;60605;53.716;19.940;2022-09-09T06:18:35;100239.16;;;10.43;100.00
57900;BME280;60605;53.716;19.940;2022-09-09T06:23:39;100243.35;;;10.46;100.00
57900;BME280;60605;53.716;19.940;2022-09-09T06:28:42;100243.58;;;10.48;100.00
57900;BME280;60605;53.716;19.940;2022-09-09T06:33:44;100244.98;;;10.54;100.00
57900;BME280;60605;53.716;19.940;2022-09-09T06:38:47;100247.50;;;10.59;100.00
57900;BME280;60605;53.716;19.940;2022-09-09T06:43:49;100244.88;;;10.62;100.00
57900;BME280;60605;53.716;19.940;2022-09-09T06:48:51;100252.50;;;10.64;100.00
57900;BME280;60605;53.716;19.940;2022-09-09T06:53:55;100258.29;;;10.64;100.00
57900;BME280;60605;53.716;19.940;2022-09-09T06:58:59;100257.07;;;10.65;100.00
57900;BME280;60605;53.716;19.940;2022-09-09T07:04:04;100257.88;;;10.68;100.00
57900;BME280;60605;53.716;19.940;2022-09-09T07:09:11;100260.02;;;10.70;100.00
57900;BME280;60605;53.716;19.940;2022-09-09T07:14:14;100263.13;;;10.71;100.00
57900;BME280;60605;53.716;19.940;2022-09-09T07:19:16;100264.84;;;10.72;100.00
57900;BME280;60605;53.716;19.940;2022-09-09T07:24:19;100270.48;;;10.71;100.00
57900;BME280;60605;53.716;19.940;2022-09-09T07:29:20;100269.19;;;10.69;100.00
57900;BME280;60605;53.716;19.940;2022-09-09T07:34:23;100265.16;;;10.70;100.00
57900;BME280;60605;53.716;19.940;2022-09-09T07:39:24;100277.84;;;10.74;100.00
57900;BME280;60605;53.716;19.940;2022-09-09T07:44:26;100282.29;;;10.78;100.00
57900;BME280;60605;53.716;19.940;2022-09-09T07:49:28;100281.27;;;10.84;100.00
57900;BME280;60605;53.716;19.940;2022-09-09T07:54:34;100281.25;;;10.89;100.00
57900;BME280;60605;53.716;19.940;2022-09-09T07:59:36;100284.17;;;10.98;100.00
57900;BME280;60605;53.716;19.940;2022-09-09T08:04:37;100290.23;;;11.08;100.00
57900;BME280;60605;53.716;19.940;2022-09-09T08:09:40;100300.38;;;11.15;100.00
57900;BME280;60605;53.716;19.940;2022-09-09T08:14:42;100294.86;;;11.19;100.00
57900;BME280;60605;53.716;19.940;2022-09-09T08:19:45;100294.44;;;11.24;100.00
57900;BME280;60605;53.716;19.940;2022-09-09T08:24:47;100288.01;;;11.33;100.00
57900;BME280;60605;53.716;19.940;2022-09-09T08:29:49;100280.41;;;11.37;100.00
57900;BME280;60605;53.716;19.940;2022-09-09T08:34:51;100291.10;;;11.48;100.00
57900;BME280;60605;53.716;19.940;2022-09-09T08:39:55;100286.85;;;11.59;100.00
57900;BME280;60605;53.716;19.940;2022-09-09T08:45:12;100285.37;;;11.65;100.00
57900;BME280;60605;53.716;19.940;2022-09-09T08:55:26;100292.83;;;11.42;100.00
57900;BME280;60605;53.716;19.940;2022-09-09T09:00:41;100302.39;;;11.34;100.00
57900;BME280;60605;53.716;19.940;2022-09-09T09:06:26;100313.67;;;11.27;100.00
57900;BME280;60605;53.716;19.940;2022-09-09T09:11:48;100318.34;;;11.23;100.00
57900;BME280;60605;53.716;19.940;2022-09-09T09:17:07;100321.60;;;11.25;100.00
57900;BME280;60605;53.716;19.940;2022-09-09T09:22:41;100323.49;;;11.25;100.00
57900;BME280;60605;53.716;19.940;2022-09-09T09:28:02;100329.60;;;11.27;100.00
57900;BME280;60605;53.716;19.940;2022-09-09T09:33:20;100328.64;;;11.29;100.00
57900;BME280;60605;53.716;19.940;2022-09-09T09:38:27;100331.63;;;11.30;100.00
57900;BME280;60605;53.716;19.940;2022-09-09T09:43:54;100331.12;;;11.33;100.00
57900;BME280;60605;53.716;19.940;2022-09-09T09:49:05;100329.29;;;11.42;100.00
57900;BME280;60605;53.716;19.940;2022-09-09T09:59:42;100330.52;;;11.59;100.00
57900;BME280;60605;53.716;19.940;2022-09-09T10:04:45;100333.52;;;11.63;100.00
57900;BME280;60605;53.716;19.940;2022-09-09T10:09:54;100333.14;;;11.69;100.00
57900;BME280;60605;53.716;19.940;2022-09-09T10:31:39;100339.22;;;11.91;100.00
57900;BME280;60605;53.716;19.940;2022-09-09T10:36:49;100341.80;;;11.90;100.00
57900;BME280;60605;53.716;19.940;2022-09-09T10:42:04;100342.79;;;11.93;100.00
57900;BME280;60605;53.716;19.940;2022-09-09T10:58:03;100350.92;;;12.07;100.00
57900;BME280;60605;53.716;19.940;2022-09-09T11:03:28;100347.25;;;12.05;100.00
57900;BME280;60605;53.716;19.940;2022-09-09T11:08:34;100354.57;;;12.03;100.00
57900;BME280;60605;53.716;19.940;2022-09-09T11:13:46;100356.39;;;12.01;100.00
57900;BME280;60605;53.716;19.940;2022-09-09T11:19:01;100365.44;;;11.97;100.00
57900;BME280;60605;53.716;19.940;2022-09-09T11:24:12;100367.01;;;11.96;100.00
57900;BME280;60605;53.716;19.940;2022-09-09T11:34:57;100374.13;;;11.92;100.00
57900;BME280;60605;53.716;19.940;2022-09-09T11:40:24;100372.24;;;11.95;100.00
57900;BME280;60605;53.716;19.940;2022-09-09T11:45:29;100376.42;;;11.99;100.00
57900;BME280;60605;53.716;19.940;2022-09-09T11:50:36;100374.70;;;12.06;100.00
57900;BME280;60605;53.716;19.940;2022-09-09T11:55:39;100384.48;;;12.10;100.00
57900;BME280;60605;53.716;19.940;2022-09-09T12:00:47;100384.56;;;12.07;100.00
57900;BME280;60605;53.716;19.940;2022-09-09T12:05:50;100380.11;;;12.10;100.00
57900;BME280;60605;53.716;19.940;2022-09-09T12:10:58;100378.21;;;12.16;100.00
57900;BME280;60605;53.716;19.940;2022-09-09T12:16:04;100376.81;;;12.19;100.00
57900;BME280;60605;53.716;19.940;2022-09-09T12:21:41;100374.43;;;12.22;100.00
57900;BME280;60605;53.716;19.940;2022-09-09T12:27:11;100374.67;;;12.26;100.00
57900;BME280;60605;53.716;19.940;2022-09-09T12:32:27;100376.67;;;12.31;100.00
57900;BME280;60605;53.716;19.940;2022-09-09T12:37:51;100378.09;;;12.34;100.00
57900;BME280;60605;53.716;19.940;2022-09-09T12:42:55;100372.98;;;12.33;100.00
57900;BME280;60605;53.716;19.940;2022-09-09T12:53:12;100376.98;;;12.31;100.00
57900;BME280;60605;53.716;19.940;2022-09-09T12:58:19;100373.45;;;12.34;100.00
57900;BME280;60605;53.716;19.940;2022-09-09T13:03:23;100372.13;;;12.45;100.00
57900;BME280;60605;53.716;19.940;2022-09-09T13:08:26;100374.85;;;12.53;100.00
57900;BME280;60605;53.716;19.940;2022-09-09T13:13:30;100373.39;;;12.52;100.00
57900;BME280;60605;53.716;19.940;2022-09-09T13:18:41;100375.81;;;12.48;100.00
57900;BME280;60605;53.716;19.940;2022-09-09T13:23:49;100371.84;;;12.48;100.00
57900;BME280;60605;53.716;19.940;2022-09-09T13:28:53;100369.33;;;12.50;100.00
57900;BME280;60605;53.716;19.940;2022-09-09T13:33:56;100366.21;;;12.55;100.00
57900;BME280;60605;53.716;19.940;2022-09-09T13:39:00;100362.44;;;12.60;100.00
57900;BME280;60605;53.716;19.940;2022-09-09T13:44:04;100362.21;;;12.64;100.00
57900;BME280;60605;53.716;19.940;2022-09-09T13:54:15;100361.52;;;12.72;100.00
57900;BME280;60605;53.716;19.940;2022-09-09T13:59:19;100363.27;;;12.71;100.00
57900;BME280;60605;53.716;19.940;2022-09-09T14:04:24;100359.50;;;12.71;100.00
57900;BME280;60605;53.716;19.940;2022-09-09T14:09:26;100353.20;;;12.71;100.00
57900;BME280;60605;53.716;19.940;2022-09-09T14:14:28;100357.58;;;12.71;100.00
57900;BME280;60605;53.716;19.940;2022-09-09T14:19:30;100355.28;;;12.68;100.00
57900;BME280;60605;53.716;19.940;2022-09-09T14:24:32;100364.02;;;12.69;100.00
57900;BME280;60605;53.716;19.940;2022-09-09T14:29:34;100375.17;;;12.68;100.00
57900;BME280;60605;53.716;19.940;2022-09-09T14:34:36;100382.55;;;12.70;100.00
57900;BME280;60605;53.716;19.940;2022-09-09T14:39:38;100377.02;;;12.73;100.00
57900;BME280;60605;53.716;19.940;2022-09-09T14:44:42;100374.80;;;12.77;100.00
57900;BME280;60605;53.716;19.940;2022-09-09T14:49:44;100377.55;;;12.81;100.00
57900;BME280;60605;53.716;19.940;2022-09-09T14:54:48;100371.40;;;12.85;100.00
57900;BME280;60605;53.716;19.940;2022-09-09T14:59:51;100373.17;;;12.87;100.00
57900;BME280;60605;53.716;19.940;2022-09-09T15:04:53;100383.86;;;12.87;100.00
57900;BME280;60605;53.716;19.940;2022-09-09T15:09:58;100388.02;;;12.89;100.00
57900;BME280;60605;53.716;19.940;2022-09-09T15:15:00;100388.86;;;12.93;100.00
57900;BME280;60605;53.716;19.940;2022-09-09T15:20:04;100392.09;;;12.96;100.00
57900;BME280;60605;53.716;19.940;2022-09-09T15:25:11;100396.33;;;12.96;100.00
57900;BME280;60605;53.716;19.940;2022-09-09T15:30:15;100394.52;;;12.93;100.00
57900;BME280;60605;53.716;19.940;2022-09-09T15:35:18;100401.48;;;12.90;100.00
57900;BME280;60605;53.716;19.940;2022-09-09T15:40:19;100405.91;;;12.87;100.00
57900;BME280;60605;53.716;19.940;2022-09-09T15:45:21;100407.94;;;12.85;100.00
57900;BME280;60605;53.716;19.940;2022-09-09T15:50:23;100409.61;;;12.85;100.00
57900;BME280;60605;53.716;19.940;2022-09-09T15:55:25;100409.54;;;12.84;100.00
57900;BME280;60605;53.716;19.940;2022-09-09T16:00:27;100408.66;;;12.84;100.00
57900;BME280;60605;53.716;19.940;2022-09-09T16:05:30;100406.83;;;12.86;100.00
57900;BME280;60605;53.716;19.940;2022-09-09T16:10:33;100403.83;;;12.85;100.00
57900;BME280;60605;53.716;19.940;2022-09-09T16:15:34;100397.34;;;12.85;100.00
57900;BME280;60605;53.716;19.940;2022-09-09T16:20:36;100397.90;;;12.84;100.00
57900;BME280;60605;53.716;19.940;2022-09-09T16:25:38;100403.11;;;12.82;100.00
57900;BME280;60605;53.716;19.940;2022-09-09T16:30:41;100395.77;;;12.80;100.00
57900;BME280;60605;53.716;19.940;2022-09-09T16:35:43;100393.42;;;12.79;100.00
57900;BME280;60605;53.716;19.940;2022-09-09T16:40:45;100394.66;;;12.77;100.00
57900;BME280;60605;53.716;19.940;2022-09-09T16:45:47;100387.07;;;12.74;100.00
57900;BME280;60605;53.716;19.940;2022-09-09T16:50:49;100393.23;;;12.72;100.00
57900;BME280;60605;53.716;19.940;2022-09-09T16:55:53;100400.73;;;12.71;100.00
57900;BME280;60605;53.716;19.940;2022-09-09T17:01:02;100398.50;;;12.68;100.00
57900;BME280;60605;53.716;19.940;2022-09-09T17:06:13;100400.52;;;12.68;100.00
57900;BME280;60605;53.716;19.940;2022-09-09T17:11:18;100406.27;;;12.64;100.00
57900;BME280;60605;53.716;19.940;2022-09-09T17:16:30;100410.02;;;12.61;100.00
57900;BME280;60605;53.716;19.940;2022-09-09T17:21:36;100408.42;;;12.58;100.00
57900;BME280;60605;53.716;19.940;2022-09-09T17:26:56;100411.90;;;12.54;100.00
57900;BME280;60605;53.716;19.940;2022-09-09T17:31:59;100421.56;;;12.50;100.00
57900;BME280;60605;53.716;19.940;2022-09-09T17:37:02;100431.80;;;12.47;100.00
57900;BME280;60605;53.716;19.940;2022-09-09T17:42:10;100433.43;;;12.43;100.00
57900;BME280;60605;53.716;19.940;2022-09-09T17:47:13;100439.96;;;12.40;100.00
57900;BME280;60605;53.716;19.940;2022-09-09T17:52:15;100452.76;;;12.38;100.00
57900;BME280;60605;53.716;19.940;2022-09-09T17:57:25;100447.09;;;12.36;100.00
57900;BME280;60605;53.716;19.940;2022-09-09T18:02:28;100455.01;;;12.34;100.00
57900;BME280;60605;53.716;19.940;2022-09-09T18:07:30;100463.84;;;12.33;100.00
57900;BME280;60605;53.716;19.940;2022-09-09T18:12:35;100460.59;;;12.30;100.00
57900;BME280;60605;53.716;19.940;2022-09-09T18:17:37;100456.44;;;12.27;100.00
57900;BME280;60605;53.716;19.940;2022-09-09T18:22:40;100455.38;;;12.23;100.00
57900;BME280;60605;53.716;19.940;2022-09-09T18:27:46;100452.90;;;12.20;100.00
57900;BME280;60605;53.716;19.940;2022-09-09T18:32:49;100450.73;;;12.16;100.00
57900;BME280;60605;53.716;19.940;2022-09-09T18:37:56;100452.77;;;12.14;100.00
57900;BME280;60605;53.716;19.940;2022-09-09T18:43:02;100459.02;;;12.13;100.00
57900;BME280;60605;53.716;19.940;2022-09-09T18:48:13;100470.12;;;12.13;100.00
57900;BME280;60605;53.716;19.940;2022-09-09T18:53:18;100466.38;;;12.12;100.00
57900;BME280;60605;53.716;19.940;2022-09-09T18:58:24;100473.37;;;12.12;100.00
57900;BME280;60605;53.716;19.940;2022-09-09T19:03:29;100475.58;;;12.12;100.00
57900;BME280;60605;53.716;19.940;2022-09-09T19:08:40;100486.94;;;12.13;100.00
57900;BME280;60605;53.716;19.940;2022-09-09T19:13:52;100491.27;;;12.13;100.00
57900;BME280;60605;53.716;19.940;2022-09-09T19:19:02;100489.01;;;12.12;100.00
57900;BME280;60605;53.716;19.940;2022-09-09T19:24:27;100494.84;;;12.11;100.00
57900;BME280;60605;53.716;19.940;2022-09-09T19:29:33;100493.09;;;12.10;100.00
57900;BME280;60605;53.716;19.940;2022-09-09T19:34:41;100488.45;;;12.10;100.00
57900;BME280;60605;53.716;19.940;2022-09-09T19:39:46;100485.08;;;12.10;100.00
57900;BME280;60605;53.716;19.940;2022-09-09T19:44:52;100482.84;;;12.09;100.00
57900;BME280;60605;53.716;19.940;2022-09-09T19:49:56;100473.52;;;12.09;100.00
57900;BME280;60605;53.716;19.940;2022-09-09T19:55:00;100466.36;;;12.09;100.00
57900;BME280;60605;53.716;19.940;2022-09-09T20:00:07;100466.91;;;12.09;100.00
57900;BME280;60605;53.716;19.940;2022-09-09T20:05:14;100464.75;;;12.09;100.00
57900;BME280;60605;53.716;19.940;2022-09-09T20:10:19;100463.58;;;12.09;100.00
57900;BME280;60605;53.716;19.940;2022-09-09T20:15:21;100462.80;;;12.09;100.00
57900;BME280;60605;53.716;19.940;2022-09-09T20:20:25;100453.89;;;12.08;100.00
57900;BME280;60605;53.716;19.940;2022-09-09T20:25:34;100451.99;;;12.10;100.00
57900;BME280;60605;53.716;19.940;2022-09-09T20:30:39;100450.19;;;12.10;100.00
57900;BME280;60605;53.716;19.940;2022-09-09T20:35:43;100450.20;;;12.10;100.00
57900;BME280;60605;53.716;19.940;2022-09-09T20:40:46;100461.02;;;12.11;100.00
57900;BME280;60605;53.716;19.940;2022-09-09T20:45:50;100462.61;;;12.11;100.00
57900;BME280;60605;53.716;19.940;2022-09-09T20:50:55;100462.89;;;12.12;100.00
57900;BME280;60605;53.716;19.940;2022-09-09T20:56:01;100469.54;;;12.13;100.00
57900;BME280;60605;53.716;19.940;2022-09-09T21:01:04;100476.06;;;12.14;100.00
57900;BME280;60605;53.716;19.940;2022-09-09T21:06:10;100477.34;;;12.16;100.00
57900;BME280;60605;53.716;19.940;2022-09-09T21:11:13;100472.52;;;12.15;100.00
57900;BME280;60605;53.716;19.940;2022-09-09T21:16:16;100476.08;;;12.17;100.00
57900;BME280;60605;53.716;19.940;2022-09-09T21:21:22;100475.74;;;12.17;100.00
57900;BME280;60605;53.716;19.940;2022-09-09T21:26:25;100474.91;;;12.18;100.00
57900;BME280;60605;53.716;19.940;2022-09-09T21:31:27;100463.73;;;12.19;100.00
57900;BME280;60605;53.716;19.940;2022-09-09T21:36:30;100469.22;;;12.18;100.00
57900;BME280;60605;53.716;19.940;2022-09-09T21:41:31;100477.12;;;12.17;100.00
57900;BME280;60605;53.716;19.940;2022-09-09T21:46:33;100477.09;;;12.18;100.00
57900;BME280;60605;53.716;19.940;2022-09-09T21:51:37;100471.27;;;12.19;100.00
57900;BME280;60605;53.716;19.940;2022-09-09T21:56:39;100463.64;;;12.20;100.00
57900;BME280;60605;53.716;19.940;2022-09-09T22:01:41;100458.17;;;12.21;100.00
57900;BME280;60605;53.716;19.940;2022-09-09T22:06:43;100462.38;;;12.21;100.00
57900;BME280;60605;53.716;19.940;2022-09-09T22:11:45;100465.71;;;12.22;100.00
57900;BME280;60605;53.716;19.940;2022-09-09T22:16:47;100472.77;;;12.23;100.00
57900;BME280;60605;53.716;19.940;2022-09-09T22:21:49;100469.48;;;12.24;100.00
57900;BME280;60605;53.716;19.940;2022-09-09T22:26:51;100474.91;;;12.25;100.00
57900;BME280;60605;53.716;19.940;2022-09-09T22:31:56;100469.73;;;12.25;100.00
57900;BME280;60605;53.716;19.940;2022-09-09T22:36:59;100452.98;;;12.26;100.00
57900;BME280;60605;53.716;19.940;2022-09-09T22:42:02;100452.21;;;12.26;100.00
57900;BME280;60605;53.716;19.940;2022-09-09T22:47:06;100444.56;;;12.27;100.00
57900;BME280;60605;53.716;19.940;2022-09-09T22:52:08;100443.16;;;12.27;100.00
57900;BME280;60605;53.716;19.940;2022-09-09T22:57:11;100445.58;;;12.28;100.00
57900;BME280;60605;53.716;19.940;2022-09-09T23:02:14;100442.67;;;12.28;100.00
57900;BME280;60605;53.716;19.940;2022-09-09T23:07:16;100439.32;;;12.28;100.00
57900;BME280;60605;53.716;19.940;2022-09-09T23:12:21;100430.29;;;12.29;100.00
57900;BME280;60605;53.716;19.940;2022-09-09T23:17:23;100424.19;;;12.29;100.00
57900;BME280;60605;53.716;19.940;2022-09-09T23:22:25;100423.98;;;12.29;100.00
57900;BME280;60605;53.716;19.940;2022-09-09T23:27:29;100425.50;;;12.30;100.00
57900;BME280;60605;53.716;19.940;2022-09-09T23:32:32;100413.02;;;12.29;100.00
57900;BME280;60605;53.716;19.940;2022-09-09T23:37:34;100416.04;;;12.30;100.00
57900;BME280;60605;53.716;19.940;2022-09-09T23:42:35;100405.74;;;12.29;100.00
57900;BME280;60605;53.716;19.940;2022-09-09T23:47:37;100409.66;;;12.27;100.00
57900;BME280;60605;53.716;19.940;2022-09-09T23:52:39;100414.40;;;12.26;100.00
57900;BME280;60605;53.716;19.940;2022-09-09T23:57:44;100404.89;;;12.25;100.00
